Terminal Aerodrome Forecast
Issued by NWS

Home | Current Version | Previous Version | Graphics & Text | Print | Product List | Glossary On
Versions: 1 2 3 4 5 6 7 8 9 10 11 12 13 14 15 16 17 18 19 20 21 22 23 24 25
000
FTUS43 KABR 211900 AAA
TAFATY
TAF AMD
KATY 211943Z 2120/2218 29010KT P6SM SCT035
     FM220100 VRB03KT P6SM SKC
     FM221000 VRB03KT 2SM BR SKC
     FM221400 36006KT P6SM BKN200=

USA.gov is the U.S. government's official web portal to all federal, state and local government web resources and services.